Terminal Aerodrome Forecast
Issued by NWS

Home | Current Version | Previous Version | Graphics & Text | Print | Product List | Glossary On
Versions: 1 2 3 4 5 6 7 8 9 10 11 12 13 14 15 16
407
FTUS42 KMHX 150526
TAFISO
TAF
KISO 150526Z 1506/1606 VRB02KT P6SM SCT008 BKN050
      TEMPO 1506/1508 5SM BR
     FM150800 VRB04KT P6SM SCT008 BKN030
     FM151600 01007KT P6SM SCT020 BKN035
     FM160000 VRB04KT P6SM SCT020 BKN035
      AMD LTD TO CLD VIS AND WIND=

USA.gov is the U.S. government's official web portal to all federal, state and local government web resources and services.